WetterOnline ( https://www.wetteronline.de )

Wetter aktuell Waiblingen

Aktuelles Wetter: Schnarrenberg/Stuttgart (315m)

6-stündlich | Neueste Meldungen
Ortszeit Temperatur Wetter
So, 03.03. 1:00 7.6° C bedeckt
Sa, 02.03. 19:00 11.4° C bedeckt
Sa, 02.03. 13:00 13.3° C leicht bewölkt
Sa, 02.03. 7:00 3.7° C wolkig
Sa, 02.03. 1:00 6.2° C bewölkt
Fr, 01.03. 19:00 7.9° C bedeckt
Fr, 01.03. 13:00 8.9° C Sprühregen
Fr, 01.03. 7:00 4.3° C bedeckt
Ortszeit Temperatur Wetter
So, 03.03. 3:00 6.9° C bedeckt
So, 03.03. 2:50 6.9° C bedeckt
So, 03.03. 2:40 6.9° C bedeckt
So, 03.03. 2:30 7.2° C bedeckt
So, 03.03. 2:20 7.2° C bedeckt
So, 03.03. 2:10 7.3° C bedeckt
So, 03.03. 2:00 7.1° C bedeckt
So, 03.03. 1:30 7.6° C bedeckt
So, 03.03. 1:00 7.6° C bedeckt
So, 03.03. 0:30 8.0° C bedeckt
So, 03.03. 0:00 8.5° C bedeckt
Ortszeit Relative Feuchte Sichtweite
So, 03.03. 1:00 86% 15 km
Sa, 02.03. 19:00 66% 55 km
Sa, 02.03. 13:00 53% >70 km
Sa, 02.03. 7:00 93% 16 km
Sa, 02.03. 1:00 86% 30 km
Fr, 01.03. 19:00 82% 26 km
Fr, 01.03. 13:00 85% 18 km
Fr, 01.03. 7:00 88% 11 km
Ortszeit Relative Feuchte Sichtweite
So, 03.03. 3:00 89% 14 km
So, 03.03. 2:50 89% -
So, 03.03. 2:40 88% -
So, 03.03. 2:30 87% 14 km
So, 03.03. 2:20 87% -
So, 03.03. 2:10 88% -
So, 03.03. 2:00 88% 12 km
So, 03.03. 1:30 87% 14 km
So, 03.03. 1:00 86% 15 km
So, 03.03. 0:30 84% 17 km
So, 03.03. 0:00 81% 19 km
Ortszeit Niederschlagsmenge Niederschlagsart
So, 03.03. 1:00 0.0 l/m2 in 6 Std. -
Sa, 02.03. 19:00 0.0 l/m2 in 12 Std. -
Sa, 02.03. 13:00 0.0 l/m2 in 6 Std. -
Sa, 02.03. 7:00 0.0 l/m2 in 12 Std. -
Sa, 02.03. 1:00 0.0 l/m2 in 6 Std. -
Fr, 01.03. 19:00 0.7 l/m2 in 12 Std. Regen
Fr, 01.03. 13:00 0.7 l/m2 in 6 Std. Regen
Fr, 01.03. 7:00 0.1 l/m2 in 12 Std. Regen
Ortszeit Niederschlagsmenge Niederschlagsart
So, 03.03. 3:00 0.0 l/m2 in 1 Std. -
So, 03.03. 2:50 keine Meldung -
So, 03.03. 2:40 keine Meldung -
So, 03.03. 2:30 0.0 l/m2 in 30 Min -
So, 03.03. 2:20 keine Meldung -
So, 03.03. 2:10 keine Meldung -
So, 03.03. 2:00 0.0 l/m2 in 1 Std. -
So, 03.03. 1:30 0.0 l/m2 in 30 Min -
So, 03.03. 1:00 0.0 l/m2 in 1 Std. -
So, 03.03. 0:30 0.0 l/m2 in 30 Min -
So, 03.03. 0:00 0.0 l/m2 in 1 Std. -
Ortszeit Stärke Spitze Richtung
km/h Bft. km/h Grad Sektor
So, 03.03. 1:00 7 2 29 60° NO
Sa, 02.03. 19:00 15 3 28 100° O
Sa, 02.03. 13:00 13 3 24 150° SO
Sa, 02.03. 7:00 11 2 18 160° S
Sa, 02.03. 1:00 11 2 17 170° S
Fr, 01.03. 19:00 4 1 25 60° NO
Fr, 01.03. 13:00 7 2 18 120° SO
Fr, 01.03. 7:00 7 2 18 150° SO
Ortszeit Stärke Spitze Richtung
km/h Bft. km/h Grad Sektor
So, 03.03. 3:00 7 2 11 80° O
So, 03.03. 2:50 7 2 - 80° O
So, 03.03. 2:40 7 2 - 70° O
So, 03.03. 2:30 7 2 11 90° O
So, 03.03. 2:20 7 2 - 90° O
So, 03.03. 2:10 7 2 - 100° O
So, 03.03. 2:00 7 2 14 80° O
So, 03.03. 1:30 7 2 11 60° NO
So, 03.03. 1:00 7 2 14 60° NO
So, 03.03. 0:30 11 2 14 90° O
So, 03.03. 0:00 11 2 22 100° O
Ortszeit Untergrenze Bedeckung Gattung
total tief tief mittel hoch
So, 03.03. 1:00 3300 m 8/8 8/8 - - -
Sa, 02.03. 19:00 4500 m 8/8 8/8 - - -
Sa, 02.03. 13:00 8700 m 7/8 0/8 - - -
Sa, 02.03. 7:00 5700 m 8/8 3/8 - - -
Sa, 02.03. 1:00 4200 m 7/8 7/8 - - -
Fr, 01.03. 19:00 2400 m 8/8 8/8 - - -
Fr, 01.03. 13:00 1500 m 8/8 8/8 - - -
Fr, 01.03. 7:00 3000 m 8/8 8/8 - - -
Ortszeit Bedeckungsgrad in Achtel und Wolkenuntergrenze
So, 03.03. 3:00 8(3900m) 8(5400m) 8(7800m)
So, 03.03. 2:50 8(3900m) 8(5400m) 8(7800m)
So, 03.03. 2:40 8
So, 03.03. 2:30 8(3300m)
So, 03.03. 2:20 8(3300m)
So, 03.03. 2:10 8
So, 03.03. 2:00 8(3300m) 8(5100m)
So, 03.03. 1:30 8(3300m) 8(4800m)
So, 03.03. 1:00 8(3300m) 8(4800m)
So, 03.03. 0:30 8(3300m) 8(4800m)
So, 03.03. 0:00 8(3600m) 8(4500m)
Ortszeit Luftdruck NN (hPa) Tendenz (hPa in 3 Std.)
So, 03.03. 1:00 1001 - 0,6
Sa, 02.03. 19:00 1002 - 0,3
Sa, 02.03. 13:00 1004 - 1,5
Sa, 02.03. 7:00 1006 + 0,3
Sa, 02.03. 1:00 1006 - 0,7
Fr, 01.03. 19:00 1008 - 0,1
Fr, 01.03. 13:00 1008 0,0
Fr, 01.03. 7:00 1009 + 0,8
Ortszeit Luftdruck NN (hPa) Tendenz (hPa in 3 Std.)
So, 03.03. 3:00 1000 - 1,1
So, 03.03. 2:50 1000 keine Meldung
So, 03.03. 2:40 1000 keine Meldung
So, 03.03. 2:30 1000 - 0,8
So, 03.03. 2:20 1000 keine Meldung
So, 03.03. 2:10 1000 keine Meldung
So, 03.03. 2:00 1001 - 0,7
So, 03.03. 1:30 1001 - 0,6
So, 03.03. 1:00 1001 - 0,6
So, 03.03. 0:30 1001 - 0,7
So, 03.03. 0:00 1001 - 0,9
Ortszeit Schneehöhe (cm)
So, 03.03. 1:00 0
Sa, 02.03. 19:00 0
Sa, 02.03. 13:00 0
Sa, 02.03. 7:00 0
Sa, 02.03. 1:00 0
Fr, 01.03. 19:00 0
Fr, 01.03. 13:00 0
Fr, 01.03. 7:00 0
Ortszeit Schneehöhe (cm)
So, 03.03. 3:00 0
So, 03.03. 2:50 0
So, 03.03. 2:40 -
So, 03.03. 2:30 0
So, 03.03. 2:20 0
So, 03.03. 2:10 -
So, 03.03. 2:00 0
So, 03.03. 1:30 0
So, 03.03. 1:00 0
So, 03.03. 0:30 0
So, 03.03. 0:00 0
Link zu dieser Seite / Seite empfehlen

Das Wetter in ...